CheckWX is a tool to help pilots better visualize weather data.  It is not intended as a substitute for an official pre-flight weather briefing.

09:04:09 UTC

LOWG TAF
Graz Airport
Graz, Austria
TAF LOWG 180515Z 1806/1906 VRB02KT 0300 FG VV002 TX20/1814Z TN07/1904Z BECMG 1807/1809 15006KT 9999 FEW050 TEMPO 1813/1816 21010KT BECMG 1820/1822 0500 BCFG NSC TEMPO 1822/1906 0300 FG VV002

Oct-18@
06:00 UTC

Oct-18 @ 06:00 UTC

Oct-18@
07:00 UTC

Oct-18 @ 07:00 UTC

TAF LOWG 180515Z 1806/1906 VRB02KT 0300 FG VV002 TX20/1814Z TN07/1904Z

Expired

Wind
  • Variable at 2 KTS
Conditions
Fog
Cloud Levels
  • Vertical visibility at 200' AGL

Oct-18@
07:00 UTC

Oct-18 @ 07:00 UTC

Oct-18@
20:00 UTC

Oct-18 @ 20:00 UTC

BECMG 1807/1809 15006KT 9999 FEW050

Becoming

Becoming Conditions expected by Fri, Oct 18, 2019 @ 09:00 UTC

Wind
  • 150° at 6 KTS
Conditions
Fog
Cloud Levels
  • Few at 5,000' AGL

Oct-18@
13:00 UTC

Oct-18 @ 13:00 UTC

Oct-18@
16:00 UTC

Oct-18 @ 16:00 UTC

TEMPO 1813/1816 21010KT

Temporary

Temporary Changes expected for less than half the time period

Wind
  • 210° at 10 KTS

Oct-18@
20:00 UTC

Oct-18 @ 20:00 UTC

Oct-19@
06:00 UTC

Oct-19 @ 06:00 UTC

BECMG 1820/1822 0500 BCFG NSC

Becoming

Becoming Conditions expected by Fri, Oct 18, 2019 @ 22:00 UTC

Wind
  • 150° at 6 KTS
Conditions
Patches of Fog
Cloud Levels
  • No significant clouds

Oct-18@
22:00 UTC

Oct-18 @ 22:00 UTC

Oct-19@
06:00 UTC

Oct-19 @ 06:00 UTC

TEMPO 1822/1906 0300 FG VV002

Temporary

Temporary Changes expected for less than half the time period

Conditions
Fog
Cloud Levels
  • Vertical visibility at 200' AGL